createdAt,value
2023-05-21T00:00:43.181Z,96746.97
2023-05-21T00:03:46.273Z,96739.00
2023-05-21T00:06:47.963Z,96739.84
2023-05-21T00:09:49.538Z,96740.47
2023-05-21T00:12:51.095Z,96730.03
2023-05-21T00:15:52.692Z,96740.94
2023-05-21T00:18:55.264Z,96736.06
2023-05-21T00:21:57.685Z,96732.41
2023-05-21T00:24:59.749Z,96738.59
2023-05-21T00:28:01.313Z,96733.09
2023-05-21T00:31:02.897Z,96733.31
2023-05-21T00:34:04.518Z,96730.69
2023-05-21T00:37:06.272Z,96726.84
2023-05-21T00:40:09.264Z,96724.63
2023-05-21T00:43:10.763Z,96727.09
2023-05-21T00:46:16.727Z,96725.06
2023-05-21T00:49:18.944Z,96729.38
2023-05-21T00:52:21.587Z,96727.94
2023-05-21T00:55:23.352Z,96734.09
2023-05-21T00:58:25.132Z,96733.66
2023-05-21T01:01:26.922Z,96730.00
2023-05-21T01:04:28.941Z,96730.84
2023-05-21T01:07:30.716Z,96736.59
2023-05-21T01:10:32.564Z,96731.06
2023-05-21T01:13:38.962Z,96726.56
2023-05-21T01:16:42.676Z,96727.22
2023-05-21T01:19:44.769Z,96727.81
2023-05-21T01:22:52.106Z,96720.47
2023-05-21T01:25:53.706Z,96728.66
2023-05-21T01:28:55.222Z,96720.28
2023-05-21T01:32:16.363Z,96715.38
2023-05-21T01:35:26.207Z,96721.75
2023-05-21T01:38:43.723Z,96717.03
2023-05-21T01:41:46.180Z,96722.34
2023-05-21T01:44:49.193Z,96720.72
2023-05-21T01:47:54.002Z,96721.13
2023-05-21T01:50:59.356Z,96706.44
2023-05-21T01:54:01.614Z,96719.72
2023-05-21T01:57:03.818Z,96708.91
2023-05-21T02:00:06.263Z,96713.59
2023-05-21T02:03:18.466Z,96706.47
2023-05-21T02:06:20.083Z,96704.41
2023-05-21T02:09:21.635Z,96708.50
2023-05-21T02:12:23.464Z,96706.25
2023-05-21T02:15:25.760Z,96712.41
2023-05-21T02:18:29.308Z,96710.94
2023-05-21T02:21:31.207Z,96714.00
2023-05-21T02:24:33.168Z,96707.28
2023-05-21T02:27:38.944Z,96708.91
2023-05-21T02:30:40.529Z,96700.53
2023-05-21T02:33:42.140Z,96700.13
2023-05-21T02:36:43.755Z,96691.56
2023-05-21T02:39:45.870Z,96700.94
2023-05-21T02:42:47.503Z,96695.44
2023-05-21T02:45:54.460Z,96690.94
2023-05-21T02:48:56.356Z,96690.53
2023-05-21T02:51:58.069Z,96696.63
2023-05-21T02:54:59.607Z,96692.56
2023-05-21T02:58:01.204Z,96691.75
2023-05-21T03:01:02.798Z,96697.06
2023-05-21T03:04:04.654Z,96692.16
2023-05-21T03:07:06.323Z,96701.16
2023-05-21T03:10:08.150Z,96692.34
2023-05-21T03:13:10.063Z,96692.13
2023-05-21T03:16:12.345Z,96701.47
2023-05-21T03:19:13.918Z,96704.16
2023-05-21T03:22:15.951Z,96694.13
2023-05-21T03:25:17.519Z,96693.31
2023-05-21T03:28:19.203Z,96705.97
2023-05-21T03:31:23.889Z,96703.47
2023-05-21T03:34:38.116Z,96710.19
2023-05-21T03:37:39.696Z,96705.31
2023-05-21T03:40:41.304Z,96714.69
2023-05-21T03:43:42.906Z,96708.78
2023-05-21T03:46:45.662Z,96720.81
2023-05-21T03:49:56.811Z,96726.91
2023-05-21T03:52:58.488Z,96726.06
2023-05-21T03:56:00.008Z,96737.28
2023-05-21T03:59:01.836Z,96731.78
2023-05-21T04:02:05.047Z,96727.53
2023-05-21T04:05:07.136Z,96729.13
2023-05-21T04:08:09.040Z,96731.97
2023-05-21T04:11:11.300Z,96735.66
2023-05-21T04:14:13.153Z,96732.63
2023-05-21T04:17:14.720Z,96742.19
2023-05-21T04:20:17.035Z,96750.38
2023-05-21T04:23:19.244Z,96747.72
2023-05-21T04:26:21.237Z,96753.81
2023-05-21T04:29:22.958Z,96755.06
2023-05-21T04:32:25.348Z,96751.78
2023-05-21T04:35:27.209Z,96762.59
2023-05-21T04:38:28.753Z,96765.66
2023-05-21T04:41:30.336Z,96768.97
2023-05-21T04:44:31.940Z,96771.03
2023-05-21T04:47:35.589Z,96780.00
2023-05-21T04:50:39.002Z,96777.41
2023-05-21T04:53:40.529Z,96773.75
2023-05-21T04:56:42.532Z,96774.38
2023-05-21T04:59:44.121Z,96777.84
2023-05-21T05:02:46.368Z,96779.72
2023-05-21T05:05:48.042Z,96785.84
2023-05-21T05:08:49.565Z,96782.00
2023-05-21T05:11:51.669Z,96775.66
2023-05-21T05:14:53.347Z,96786.91
2023-05-21T05:17:55.008Z,96784.84
2023-05-21T05:20:56.624Z,96780.34
2023-05-21T05:23:58.980Z,96785.44
2023-05-21T05:27:03.273Z,96776.44
2023-05-21T05:30:05.878Z,96777.03
2023-05-21T05:33:07.776Z,96775.38
2023-05-21T05:36:09.497Z,96780.69
2023-05-21T05:39:11.831Z,96774.13
2023-05-21T05:42:14.320Z,96774.09
2023-05-21T05:45:16.080Z,96772.41
2023-05-21T05:48:17.734Z,96772.56
2023-05-21T05:51:19.294Z,96773.66
2023-05-21T05:54:20.985Z,96774.19
2023-05-21T05:57:22.621Z,96771.00
2023-05-21T06:00:26.818Z,96770.09
2023-05-21T06:03:29.789Z,96766.81
2023-05-21T06:06:34.716Z,96764.31
2023-05-21T06:09:36.483Z,96768.25
2023-05-21T06:12:38.476Z,96764.59
2023-05-21T06:15:43.164Z,96760.31
2023-05-21T06:18:44.849Z,96756.47
2023-05-21T06:21:46.633Z,96761.00
2023-05-21T06:24:48.170Z,96759.28
2023-05-21T06:27:50.881Z,96764.03
2023-05-21T06:30:58.104Z,96756.09
2023-05-21T06:34:01.376Z,96761.78
2023-05-21T06:37:03.223Z,96758.75
2023-05-21T06:40:05.422Z,96764.19
2023-05-21T06:43:07.357Z,96762.75
2023-05-21T06:46:12.048Z,96760.09
2023-05-21T06:49:15.235Z,96759.38
2023-05-21T06:52:17.973Z,96761.31
2023-05-21T06:55:19.703Z,96762.03
2023-05-21T06:58:46.997Z,96759.63
2023-05-21T07:01:50.995Z,96757.97
2023-05-21T07:04:53.726Z,96748.97
2023-05-21T07:07:55.321Z,96759.91
2023-05-21T07:10:56.924Z,96758.63
2023-05-21T07:14:03.818Z,96758.84
2023-05-21T07:17:07.876Z,96770.75
2023-05-21T07:20:11.599Z,96764.50
2023-05-21T07:23:16.098Z,96769.06
2023-05-21T07:26:17.775Z,96764.31
2023-05-21T07:29:19.865Z,96756.75
2023-05-21T07:32:21.676Z,96763.38
2023-05-21T07:35:23.452Z,96760.84
2023-05-21T07:38:26.260Z,96752.03
2023-05-21T07:41:28.192Z,96761.47
2023-05-21T07:44:31.906Z,96758.72
2023-05-21T07:47:33.651Z,96758.91
2023-05-21T07:50:35.749Z,96749.19
2023-05-21T07:53:37.787Z,96750.44
2023-05-21T07:56:43.459Z,96749.28
2023-05-21T07:59:55.240Z,96751.72
2023-05-21T08:02:57.230Z,96750.53
2023-05-21T08:06:00.643Z,96749.63
2023-05-21T08:09:02.184Z,96746.22
2023-05-21T08:12:04.442Z,96741.41
2023-05-21T08:15:06.778Z,96746.34
2023-05-21T08:18:12.609Z,96745.66
2023-05-21T08:21:17.186Z,96744.91
2023-05-21T08:24:18.964Z,96747.41
2023-05-21T08:27:21.298Z,96740.47
2023-05-21T08:30:23.007Z,96731.00
2023-05-21T08:33:25.771Z,96743.47
2023-05-21T08:36:27.404Z,96740.25
2023-05-21T08:39:34.209Z,96739.34
2023-05-21T08:42:51.138Z,96739.34
2023-05-21T08:46:16.689Z,96736.19
2023-05-21T08:49:25.750Z,96733.09
2023-05-21T08:52:31.506Z,96735.22
2023-05-21T08:55:33.483Z,96736.94
2023-05-21T08:58:36.553Z,96726.03
2023-05-21T09:01:42.347Z,96733.47
2023-05-21T09:04:57.400Z,96742.56
2023-05-21T09:08:46.700Z,96736.03
2023-05-21T09:11:56.473Z,96731.06
2023-05-21T09:15:00.231Z,96731.38
2023-05-21T09:18:06.675Z,96740.88
2023-05-21T09:21:31.481Z,96737.03
2023-05-21T09:24:37.669Z,96738.47
2023-05-21T09:27:40.604Z,96738.59
2023-05-21T09:30:49.553Z,96741.41
2023-05-21T09:33:51.258Z,96738.53
2023-05-21T09:36:57.359Z,96733.47
2023-05-21T09:39:59.983Z,96725.88
2023-05-21T09:43:01.886Z,96726.75
2023-05-21T09:46:03.712Z,96731.31
2023-05-21T09:49:21.895Z,96721.31
2023-05-21T09:52:25.338Z,96725.16
2023-05-21T09:55:28.457Z,96720.97
2023-05-21T09:58:30.095Z,96730.50
2023-05-21T10:01:33.936Z,96719.44
2023-05-21T10:04:35.831Z,96715.84
2023-05-21T10:07:38.837Z,96722.59
2023-05-21T10:10:43.767Z,96715.25
2023-05-21T10:13:51.567Z,96715.09
2023-05-21T10:16:54.523Z,96710.06
2023-05-21T10:19:56.702Z,96721.69
2023-05-21T10:22:59.021Z,96722.75
2023-05-21T10:26:00.732Z,96720.63
2023-05-21T10:29:02.820Z,96716.97
2023-05-21T10:32:05.871Z,96700.09
2023-05-21T10:35:09.111Z,96705.53
2023-05-21T10:38:13.295Z,96709.88
2023-05-21T10:41:20.025Z,96719.09
2023-05-21T10:45:16.037Z,96712.69
2023-05-21T10:48:44.334Z,96708.66
2023-05-21T10:52:18.419Z,96706.31
2023-05-21T10:55:47.169Z,96702.31
2023-05-21T10:59:18.356Z,96705.03
2023-05-21T11:02:20.970Z,96699.91
2023-05-21T11:05:50.810Z,96699.41
2023-05-21T11:08:55.951Z,96696.19
2023-05-21T11:11:58.857Z,96695.34
2023-05-21T11:15:00.632Z,96707.22
2023-05-21T11:18:02.217Z,96706.94
2023-05-21T11:21:10.172Z,96691.31
2023-05-21T11:24:19.341Z,96694.25
2023-05-21T11:27:41.714Z,96699.06
2023-05-21T11:30:43.359Z,96714.16
2023-05-21T11:33:47.638Z,96690.75
2023-05-21T11:36:49.890Z,96700.06
2023-05-21T11:39:51.809Z,96696.75
2023-05-21T11:42:55.428Z,96696.13
2023-05-21T11:45:57.295Z,96692.63
2023-05-21T11:48:59.323Z,96689.28
2023-05-21T11:52:01.486Z,96686.50
2023-05-21T11:55:04.291Z,96681.34
2023-05-21T11:58:08.621Z,96671.88
2023-05-21T12:01:27.725Z,96682.53
2023-05-21T12:04:30.439Z,96688.50
2023-05-21T12:07:31.994Z,96674.88
2023-05-21T12:10:33.504Z,96691.56
2023-05-21T12:13:35.081Z,96682.38
2023-05-21T12:16:37.349Z,96676.72
2023-05-21T12:19:39.485Z,96687.13
2023-05-21T12:22:42.613Z,96694.47
2023-05-21T12:25:44.119Z,96708.94
2023-05-21T12:28:45.791Z,96725.06
2023-05-21T12:31:50.729Z,96726.06
2023-05-21T12:34:54.579Z,96726.63
2023-05-21T12:37:56.755Z,96726.59
2023-05-21T12:41:07.433Z,96718.00
2023-05-21T12:44:09.046Z,96725.84
2023-05-21T12:47:11.712Z,96730.97
2023-05-21T12:50:13.974Z,96741.19
2023-05-21T12:53:15.640Z,96751.72
2023-05-21T12:56:17.277Z,96755.75
2023-05-21T12:59:18.847Z,96757.94
2023-05-21T13:02:44.342Z,96758.47
2023-05-21T13:05:46.739Z,96756.03
2023-05-21T13:08:48.295Z,96756.31
2023-05-21T13:11:49.848Z,96750.88
2023-05-21T13:14:53.043Z,96750.34
2023-05-21T13:17:56.745Z,96743.47
2023-05-21T13:20:58.754Z,96740.97
2023-05-21T13:24:00.265Z,96739.34
2023-05-21T13:27:01.835Z,96739.78
2023-05-21T13:30:03.838Z,96751.69
2023-05-21T13:33:06.476Z,96737.28
2023-05-21T13:36:08.168Z,96739.66
2023-05-21T13:39:09.852Z,96741.88
2023-05-21T13:42:11.445Z,96733.19
2023-05-21T13:45:15.060Z,96737.50
2023-05-21T13:48:16.871Z,96738.03
2023-05-21T13:51:37.129Z,96731.22
2023-05-21T13:54:40.499Z,96732.56
2023-05-21T13:57:42.259Z,96724.25
2023-05-21T14:00:43.773Z,96722.03
2023-05-21T14:03:45.393Z,96729.09
2023-05-21T14:06:47.770Z,96719.69
2023-05-21T14:09:49.578Z,96717.28
2023-05-21T14:12:51.564Z,96710.91
2023-05-21T14:15:53.093Z,96695.78
2023-05-21T14:18:55.447Z,96688.63
2023-05-21T14:21:57.038Z,96677.72
2023-05-21T14:24:58.602Z,96683.75
2023-05-21T14:28:00.159Z,96697.44
2023-05-21T14:31:01.719Z,96692.34
2023-05-21T14:34:03.700Z,96693.22
2023-05-21T14:37:05.502Z,96687.41
2023-05-21T14:40:07.982Z,96691.00
2023-05-21T14:43:09.608Z,96688.47
2023-05-21T14:46:11.189Z,96696.34
2023-05-21T14:49:13.234Z,96703.00
2023-05-21T14:52:14.784Z,96710.13
2023-05-21T14:55:18.337Z,96709.25
2023-05-21T14:58:19.920Z,96706.00
2023-05-21T15:01:21.580Z,96711.31
2023-05-21T15:04:23.316Z,96717.38
2023-05-21T15:07:24.825Z,96711.63
2023-05-21T15:10:27.435Z,96725.03
2023-05-21T15:13:29.057Z,96730.47
2023-05-21T15:16:31.239Z,96734.34
2023-05-21T15:19:32.965Z,96734.19
2023-05-21T15:22:35.186Z,96744.94
2023-05-21T15:25:36.909Z,96747.72
2023-05-21T15:28:38.683Z,96760.53
2023-05-21T15:31:40.346Z,96753.88
2023-05-21T15:34:41.972Z,96756.81
2023-05-21T15:37:45.304Z,96757.81
2023-05-21T15:40:47.541Z,96765.25
2023-05-21T15:43:49.236Z,96760.88
2023-05-21T15:46:51.294Z,96767.97
2023-05-21T15:49:52.830Z,96777.94
2023-05-21T15:52:54.404Z,96782.75
2023-05-21T15:55:56.674Z,96800.81
2023-05-21T15:59:01.171Z,96809.25
2023-05-21T16:02:02.756Z,96823.09
2023-05-21T16:05:04.444Z,96827.97
2023-05-21T16:08:06.148Z,96837.25
2023-05-21T16:11:09.030Z,96826.19
2023-05-21T16:14:11.493Z,96828.97
2023-05-21T16:17:13.053Z,96830.06
2023-05-21T16:20:14.738Z,96830.19
2023-05-21T16:23:16.302Z,96819.06
2023-05-21T16:26:17.906Z,96834.50
2023-05-21T16:29:19.403Z,96829.81
2023-05-21T16:32:21.256Z,96829.97
2023-05-21T16:35:22.955Z,96823.53
2023-05-21T16:38:24.456Z,96826.28
2023-05-21T16:41:26.126Z,96829.97
2023-05-21T16:44:27.615Z,96821.81
2023-05-21T16:47:29.218Z,96825.41
2023-05-21T16:50:30.840Z,96819.72
2023-05-21T16:53:32.368Z,96813.31
2023-05-21T16:56:33.940Z,96802.88
2023-05-21T16:59:35.475Z,96816.50
2023-05-21T17:02:38.242Z,96824.09
2023-05-21T17:05:39.924Z,96827.34
2023-05-21T17:08:42.428Z,96827.69
2023-05-21T17:11:44.065Z,96827.09
2023-05-21T17:14:45.699Z,96821.19
2023-05-21T17:17:47.419Z,96818.75
2023-05-21T17:20:49.066Z,96817.22
2023-05-21T17:23:50.743Z,96804.69
2023-05-21T17:26:53.301Z,96800.19
2023-05-21T17:29:54.894Z,96795.53
2023-05-21T17:32:58.179Z,96802.16
2023-05-21T17:36:01.260Z,96803.19
2023-05-21T17:39:03.073Z,96798.53
2023-05-21T17:42:04.862Z,96795.28
2023-05-21T17:45:07.127Z,96804.34
2023-05-21T17:48:08.696Z,96797.97
2023-05-21T17:51:11.042Z,96802.50
2023-05-21T17:54:12.630Z,96792.72
2023-05-21T17:57:16.009Z,96797.38
2023-05-21T18:00:17.880Z,96799.25
2023-05-21T18:03:19.368Z,96806.78
2023-05-21T18:06:20.997Z,96800.53
2023-05-21T18:09:22.798Z,96798.31
2023-05-21T18:12:24.312Z,96799.81
2023-05-21T18:15:25.868Z,96796.00
2023-05-21T18:18:27.368Z,96792.63
2023-05-21T18:21:28.882Z,96787.31
2023-05-21T18:24:30.576Z,96794.16
2023-05-21T18:27:32.123Z,96782.31
2023-05-21T18:30:34.246Z,96783.94
2023-05-21T18:33:35.877Z,96786.94
2023-05-21T18:36:40.131Z,96792.97
2023-05-21T18:39:41.713Z,96791.88
2023-05-21T18:42:43.190Z,96793.25
2023-05-21T18:45:45.305Z,96795.81
2023-05-21T18:48:48.531Z,96794.75
2023-05-21T18:51:50.563Z,96796.34
2023-05-21T18:54:52.092Z,96803.66
2023-05-21T18:57:55.559Z,96809.00
2023-05-21T19:00:57.118Z,96808.13
2023-05-21T19:03:58.690Z,96808.56
2023-05-21T19:07:00.370Z,96802.75
2023-05-21T19:10:02.445Z,96814.66
2023-05-21T19:13:06.142Z,96819.66
2023-05-21T19:16:10.976Z,96817.88
2023-05-21T19:19:12.745Z,96818.91
2023-05-21T19:22:15.010Z,96806.47
2023-05-21T19:25:16.629Z,96816.63
2023-05-21T19:28:18.988Z,96827.38
2023-05-21T19:31:21.442Z,96829.88
2023-05-21T19:34:23.401Z,96830.53
2023-05-21T19:37:24.944Z,96826.25
2023-05-21T19:40:26.458Z,96836.75
2023-05-21T19:43:28.245Z,96837.63
2023-05-21T19:46:30.978Z,96835.09
2023-05-21T19:49:32.577Z,96844.34
2023-05-21T19:52:34.135Z,96847.28
2023-05-21T19:55:37.391Z,96851.03
2023-05-21T19:58:39.030Z,96855.22
2023-05-21T20:01:43.257Z,96861.94
2023-05-21T20:04:44.838Z,96866.88
2023-05-21T20:07:46.509Z,96871.22
2023-05-21T20:10:50.560Z,96871.41
2023-05-21T20:13:53.620Z,96868.78
2023-05-21T20:16:58.390Z,96871.25
2023-05-21T20:20:01.256Z,96873.16
2023-05-21T20:23:03.320Z,96869.06
2023-05-21T20:26:04.926Z,96874.38
2023-05-21T20:29:07.897Z,96871.53
2023-05-21T20:32:09.402Z,96869.72
2023-05-21T20:35:10.974Z,96873.19
2023-05-21T20:38:12.693Z,96875.84
2023-05-21T20:41:14.279Z,96874.84
2023-05-21T20:44:15.964Z,96878.19
2023-05-21T20:47:18.158Z,96872.50
2023-05-21T20:50:21.635Z,96881.16
2023-05-21T20:53:24.059Z,96875.81
2023-05-21T20:56:40.035Z,96876.88
2023-05-21T20:59:43.240Z,96881.19
2023-05-21T21:02:45.105Z,96874.66
2023-05-21T21:05:47.373Z,96874.06
2023-05-21T21:08:50.170Z,96883.06
2023-05-21T21:11:51.774Z,96875.91
2023-05-21T21:14:53.630Z,96880.03
2023-05-21T21:17:55.207Z,96864.06
2023-05-21T21:20:57.024Z,96879.63
2023-05-21T21:23:58.557Z,96872.25
2023-05-21T21:27:00.192Z,96876.97
2023-05-21T21:30:02.170Z,96874.09
2023-05-21T21:33:03.851Z,96875.94
2023-05-21T21:36:06.302Z,96880.44
2023-05-21T21:39:07.891Z,96880.22
2023-05-21T21:42:09.605Z,96883.69
2023-05-21T21:45:11.410Z,96884.06
2023-05-21T21:48:13.018Z,96876.28
2023-05-21T21:51:15.572Z,96874.63
2023-05-21T21:54:17.122Z,96882.00
2023-05-21T21:57:18.599Z,96879.94
2023-05-21T22:00:20.937Z,96879.13
2023-05-21T22:03:22.532Z,96880.78
2023-05-21T22:06:23.997Z,96883.44
2023-05-21T22:09:25.533Z,96883.22
2023-05-21T22:12:28.868Z,96884.88
2023-05-21T22:15:32.166Z,96882.00
2023-05-21T22:18:40.822Z,96889.75
2023-05-21T22:21:43.209Z,96885.66
2023-05-21T22:24:44.712Z,96875.06
2023-05-21T22:27:46.234Z,96894.28
2023-05-21T22:30:47.791Z,96893.25
2023-05-21T22:33:49.288Z,96891.38
2023-05-21T22:36:51.503Z,96882.19
2023-05-21T22:39:53.114Z,96894.03
2023-05-21T22:42:54.654Z,96893.00
2023-05-21T22:45:56.130Z,96893.00
2023-05-21T22:48:58.117Z,96891.78
2023-05-21T22:52:05.037Z,96897.28
2023-05-21T22:55:07.845Z,96895.28
2023-05-21T22:58:09.379Z,96891.81
2023-05-21T23:01:11.172Z,96889.75
2023-05-21T23:04:13.972Z,96880.19
2023-05-21T23:07:15.977Z,96885.31
2023-05-21T23:10:17.562Z,96891.06
2023-05-21T23:13:19.078Z,96891.06
2023-05-21T23:16:22.632Z,96892.09
2023-05-21T23:19:24.253Z,96899.63
2023-05-21T23:22:26.252Z,96898.81
2023-05-21T23:25:27.748Z,96905.16
2023-05-21T23:28:29.255Z,96908.63
2023-05-21T23:31:31.569Z,96906.38
2023-05-21T23:34:33.643Z,96904.53
2023-05-21T23:37:35.171Z,96906.19
2023-05-21T23:40:37.193Z,96910.25
2023-05-21T23:43:38.949Z,96913.72
2023-05-21T23:46:40.523Z,96914.97
2023-05-21T23:49:42.062Z,96914.75
2023-05-21T23:52:43.848Z,96916.38
2023-05-21T23:55:45.475Z,96908.81
2023-05-21T23:58:46.959Z,96908.41
